Gay, WV (25244)

8:28 AM EST on February 08, 2016 (GMT -0500)
Liverpool | | Change Station
CLOSE
Current Station
Personal Weather Station
Location: LeRoy, WV
Elevation: 682 ft
Nearby Weather Stations
Active Advisory: Winter Weather Advisory

Elev 682 ft 38.89 °N, 81.53 °W | Updated 20 seconds ago

Overcast
Overcast
32.0 °F
Feels Like 32 °F
N
0.0
Wind Variable Wind from South
Gusts 0.0 mph

Today
High -- | Low -- °F
--% Chance of Precip.
Yesterday
High -- | Low -- °F
Precip. -- in
Pressure 29.68 in
Visibility 10.0 miles
Clouds Scattered Clouds 6500 ft
Overcast 9000 ft
Windchill 32 °F
Dew Point 28 °F
Humidity 83%
Rainfall 0.00 in
Snow Depth Not available.
7:25 AM 5:55 PM
Waning Crescent, 0% visible
METAR KCRW 081254Z 00000KT 10SM SCT065 OVC090 01/M03 A2967 RMK AO2 SLP051 OCNL BINOVC T00061033
Pressure 29.68 in
Visibility 10.0 miles
Clouds Scattered Clouds 6500 ft
Overcast 9000 ft
Windchill 32 °F
Dew Point 28 °F
Humidity 83%
Rainfall 0.00 in
Snow Depth Not available.
7:25 AM 5:55 PM
Waning Crescent, 0% visible
METAR KCRW 081254Z 00000KT 10SM SCT065 OVC090 01/M03 A2967 RMK AO2 SLP051 OCNL BINOVC T00061033

10-Day Weather Forecast

Almanac

Astronomy

Feb. 08, 2016 Rise Set
Actual Time
Civil Twilight
Nautical Twilight
Astronomical Twilight
Moon
Length of Visible Light
Length of Day
Tomorrow will be .
, % of the Moon is Illuminated

Today's Extremes

State Highs State Lows

Community

WunderPhotos

Upload Photos

1,891,434 photos uploaded!

WunderBlog® & News

Nearby

Air Quality

  Air Quality AQ Index Pollutant
Not available.

Snow Depth

Station Depth Elevation

Earthquake Activity

City Distance Mag. Time & Date
Minimum magnitude displayed is 2.5.

Coastal Water Temperatures

Place Temperature

Stations

Nearby Weather Stations

Station Location Temp. Windchill Dew Point Humidity Wind Precip. Elev Updated Type
                   

Watches & Warnings

Winter Weather Advisory
Issued: 4:03 AM EST Feb. 8, 2016 – National Weather Service

... Winter Weather Advisory in effect from 7 PM this evening to
7 am EST Wednesday...

The National Weather Service in Charleston has issued a Winter
Weather Advisory for snow... which is in effect from 7 PM this
evening to 7 am EST Wednesday.

* Hazard types... snow.

* Snow accumulations... snow accumulation of 2 to 6 inches over a
36 hour period. Some settling and melting of fallen snow is
expected to occur during the advisory period.

* Timing... snow will be around for most of the week with varying
intensity.

* Impacts... travel may be difficult at times. Visibilities will
be limited at times.


Precautionary/preparedness actions...

A Winter Weather Advisory for snow means that periods of snow
will cause primarily travel difficulties. Be prepared for snow
covered roads and limited visibilities... and use caution while
driving.